This is the latest recevied weather packets stored in our database for station/object VA7NEZ. If no packets are shown the sender has not sent any weather packets the latest 10 day(s).
| Time | Temp. | Humidity | Pressure | Rain* | Wind** | Luminosity | Snow |
|---|---|---|---|---|---|---|---|
| 1777526922 | 11.67° C | 58% | 1022.6 hPa | 0 mm | - | - | - |
| 1777526351 | 12.22° C | 59% | 1022.5 hPa | 0 mm | - | - | - |
| 1777525786 | 12.22° C | 56% | 1022.6 hPa | 0 mm | - | - | - |
| 1777525266 | 12.78° C | 58% | 1022.4 hPa | 0 mm | - | - | - |
| 1777524713 | 12.78° C | 56% | 1022.3 hPa | 0 mm | - | - | - |
| 1777524191 | 13.33° C | 56% | 1022.3 hPa | 0 mm | - | - | - |
| 1777523611 | 13.89° C | 54% | 1022.2 hPa | 0 mm | - | - | - |
| 1777523075 | 14.44° C | 53% | 1022.3 hPa | 0 mm | - | - | - |
| 1777522506 | 15° C | 50% | 1022.1 hPa | 0 mm | - | - | - |
| 1777522001 | 15° C | 50% | 1022.2 hPa | 0 mm | - | - | - |
| 1777521489 | 15.56° C | 50% | 1022.1 hPa | 0 mm | - | - | - |
| 1777520939 | 15.56° C | 51% | 1022 hPa | 0 mm | - | - | - |
| 1777520386 | 0° C | 100% | 1021.8 hPa | 0 mm | - | - | - |
| 1777519817 | 0° C | 100% | 1021.7 hPa | 0 mm | - | - | - |
| 1777519251 | 0° C | 100% | 1021.6 hPa | 0 mm | - | - | - |
| 1777518706 | 0° C | 100% | 1021.5 hPa | 0 mm | - | - | - |
| 1777518141 | 18.33° C | 43% | 1021.7 hPa | 0 mm | - | - | - |
| 1777517651 | 19.44° C | 37% | 1021.6 hPa | 0 mm | - | - | - |
| 1777517156 | 20° C | 36% | 1021.7 hPa | 0 mm | - | - | - |
| 1777516601 | 20.56° C | 35% | 1021.6 hPa | 0 mm | - | - | - |
| 1777515611 | 22.22° C | 30% | 1021.6 hPa | 0 mm | - | - | - |
| 1777513446 | 25° C | 27% | 1021.5 hPa | 0 mm | - | - | - |
| 1777512931 | 0° C | 100% | 1021.6 hPa | 0 mm | - | - | - |
| 1777512350 | 0° C | 100% | 1021.4 hPa | 0 mm | - | - | - |
| 1777511787 | 20.56° C | 36% | 1021.7 hPa | 0 mm | - | - | - |
* Rain latest hour (hover to see other rain measurements)
** Current wind speed in m/s (hover to see current wind gust speed)